South Byron, NY (14557)

10:27 AM EDT on July 28, 2015 (GMT -0400)
Southwoods RV Resort | | Change Station
CLOSE
Current Station
Personal Weather Station
Location: Byron, NY
Elevation: 705 ft
Nearby Weather Stations

Elev 705 ft 43.08 °N, 78.03 °W | Updated 14 seconds ago

Partly Cloudy
Partly Cloudy
77.4 °F
Feels Like 79 °F
N
0.0
Wind Variable Wind from SSE
Gusts 0.0 mph

Today
High -- | Low -- °F
--% Chance of Precip.
Yesterday
High -- | Low -- °F
Precip. -- in
5:58 AM 8:38 PM
Waxing Gibbous, 90% visible
Pressure 30.04 in
Visibility 10.0 miles
Clouds Scattered Clouds 25000 ft
Heat Index 79 °F
Dew Point 65 °F
Humidity 65%
Rainfall 0.00 in
Snow Depth Not available.
UV 1.0 out of 12
Pollen 6.70 out of 12
Air Quality Not available.
Flu Activity Not available.
METAR KROC 281354Z 24004KT 10SM SCT250 26/19 A3004 RMK AO2 SLP171 T02610189

More Conditions Fewer Conditions

Pressure 30.04 in
Visibility 10.0 miles
Clouds Scattered Clouds 25000 ft
Heat Index 79 °F
Dew Point 65 °F
Humidity 65%
Rainfall 0.00 in
Snow Depth Not available.
UV 1.0 out of 12
Pollen 6.70 out of 12
Air Quality Not available.
Flu Activity Not available.
METAR KROC 281354Z 24004KT 10SM SCT250 26/19 A3004 RMK AO2 SLP171 T02610189

More Conditions Fewer Conditions

10-Day Weather Forecast

×

Almanac

Astronomy

Jul. 28, 2015 Rise Set
Actual Time
Civil Twilight
Nautical Twilight
Astronomical Twilight
Moon
Length of Visible Light
Length of Day
Tomorrow will be .
, % of the Moon is Illuminated

Today's Extremes

State Highs State Lows

Community

WunderPhotos

Upload Photos

1,841,836 photos uploaded!

WunderBlogs® & News

Nearby

Air Quality

  Air Quality AQ Index Pollutant
Not available.

Snow Depth

Station Depth Elevation

Earthquake Activity

City Distance Mag. Time & Date
Minimum magnitude displayed is 2.5.

Coastal Water Temperatures

Place Temperature

Stations

Nearby Weather Stations

Station Location Temp. Windchill Dew Point Humidity Wind Precip. Elev Updated Type